createdAt,value
2018-12-11T00:00:21.597Z,80.08
2018-12-11T00:01:21.584Z,79.81
2018-12-11T00:02:21.578Z,79.81
2018-12-11T00:03:21.561Z,80.12
2018-12-11T00:04:21.573Z,80.54
2018-12-11T00:05:21.550Z,80.29
2018-12-11T00:06:21.530Z,80.95
2018-12-11T00:07:21.521Z,80.54
2018-12-11T00:08:21.516Z,80.43
2018-12-11T00:09:21.521Z,80.43
2018-12-11T00:10:21.503Z,80.85
2018-12-11T00:11:21.477Z,80.74
2018-12-11T00:12:21.497Z,80.02
2018-12-11T00:13:21.455Z,80.71
2018-12-11T00:14:21.467Z,80.54
2018-12-11T00:15:21.440Z,80.33
2018-12-11T00:16:21.443Z,80.95
2018-12-11T00:17:21.417Z,80.43
2018-12-11T00:18:21.405Z,80.22
2018-12-11T00:19:21.408Z,80.74
2018-12-11T00:20:21.397Z,80.33
2018-12-11T00:21:21.369Z,80.12
2018-12-11T00:22:28.958Z,80.12
2018-12-11T00:23:21.349Z,80.43
2018-12-11T00:24:21.362Z,80.22
2018-12-11T00:25:21.331Z,80.43
2018-12-11T00:26:21.314Z,80.33
2018-12-11T00:27:21.312Z,80.33
2018-12-11T00:28:21.302Z,80.33
2018-12-11T00:29:21.289Z,80.02
2018-12-11T00:30:21.294Z,80.12
2018-12-11T00:31:21.304Z,79.98
2018-12-11T00:32:28.845Z,80.43
2018-12-11T00:33:21.265Z,80.12
2018-12-11T00:34:21.234Z,80.43
2018-12-11T00:35:21.242Z,80.33
2018-12-11T00:36:21.218Z,80.43
2018-12-11T00:37:21.200Z,80.33
2018-12-11T00:38:21.196Z,80.43
2018-12-11T00:39:21.180Z,80.02
2018-12-11T00:40:21.188Z,80.12
2018-12-11T00:41:21.157Z,80.02
2018-12-11T00:42:21.220Z,80.12
2018-12-11T00:43:21.137Z,80.12
2018-12-11T00:44:21.133Z,80.22
2018-12-11T00:45:21.136Z,80.12
2018-12-11T00:46:21.101Z,80.54
2018-12-11T00:47:21.095Z,80.22
2018-12-11T00:48:21.085Z,80.22
2018-12-11T00:49:21.072Z,80.22
2018-12-11T00:50:21.104Z,80.54
2018-12-11T00:51:21.065Z,79.95
2018-12-11T00:52:21.038Z,80.43
2018-12-11T00:53:21.028Z,79.81
2018-12-11T00:54:21.020Z,80.33
2018-12-11T00:55:21.017Z,80.22
2018-12-11T00:56:21.015Z,80.12
2018-12-11T00:57:20.987Z,80.12
2018-12-11T00:58:21.009Z,80.22
2018-12-11T00:59:20.974Z,80.12
2018-12-11T01:00:20.956Z,79.71
2018-12-11T01:01:20.968Z,80.33
2018-12-11T01:02:20.944Z,80.22
2018-12-11T01:03:20.941Z,79.81
2018-12-11T01:04:20.914Z,79.71
2018-12-11T01:05:20.902Z,80.22
2018-12-11T01:06:20.917Z,80.22
2018-12-11T01:07:20.882Z,80.02
2018-12-11T01:08:20.873Z,80.02
2018-12-11T01:09:20.859Z,79.91
2018-12-11T01:10:20.845Z,79.91
2018-12-11T01:11:20.862Z,80.22
2018-12-11T01:12:20.823Z,79.91
2018-12-11T01:13:20.816Z,80.33
2018-12-11T01:14:20.832Z,80.43
2018-12-11T01:15:20.795Z,79.91
2018-12-11T01:16:20.782Z,80.12
2018-12-11T01:17:20.799Z,80.22
2018-12-11T01:18:20.761Z,80.02
2018-12-11T01:19:20.749Z,80.54
2018-12-11T01:20:20.740Z,80.22
2018-12-11T01:21:20.731Z,80.22
2018-12-11T01:22:20.734Z,80.22
2018-12-11T01:23:20.714Z,80.22
2018-12-11T01:24:20.693Z,80.33
2018-12-11T01:25:20.679Z,80.12
2018-12-11T01:26:20.669Z,80.22
2018-12-11T01:27:20.679Z,79.91
2018-12-11T01:28:20.650Z,80.22
2018-12-11T01:29:20.646Z,80.02
2018-12-11T01:30:20.627Z,80.12
2018-12-11T01:31:20.614Z,80.33
2018-12-11T01:32:20.666Z,80.12
2018-12-11T01:33:20.609Z,80.22
2018-12-11T01:34:20.585Z,80.22
2018-12-11T01:35:20.581Z,80.02
2018-12-11T01:36:20.559Z,80.22
2018-12-11T01:37:20.575Z,79.91
2018-12-11T01:38:20.539Z,80.22
2018-12-11T01:39:28.098Z,80.12
2018-12-11T01:40:20.517Z,80.54
2018-12-11T01:41:20.516Z,80.36
2018-12-11T01:42:20.519Z,80.74
2018-12-11T01:43:20.505Z,80.43
2018-12-11T01:44:20.494Z,80.33
2018-12-11T01:45:20.462Z,79.91
2018-12-11T01:46:20.457Z,80.74
2018-12-11T01:47:20.466Z,80.64
2018-12-11T01:48:20.433Z,80.95
2018-12-11T01:49:20.417Z,80.74
2018-12-11T01:50:20.454Z,80.85
2018-12-11T01:51:20.401Z,80.85
2018-12-11T01:52:20.432Z,80.85
2018-12-11T01:53:20.380Z,80.85
2018-12-11T01:54:20.363Z,80.95
2018-12-11T01:55:20.353Z,80.95
2018-12-11T01:56:20.358Z,81.26
2018-12-11T01:57:20.334Z,80.64
2018-12-11T01:58:20.366Z,80.74
2018-12-11T01:59:20.311Z,80.64
2018-12-11T02:00:20.302Z,80.60
2018-12-11T02:01:20.284Z,80.60
2018-12-11T02:02:20.288Z,80.85
2018-12-11T02:03:20.288Z,81.26
2018-12-11T02:04:20.257Z,81.23
2018-12-11T02:05:20.247Z,81.12
2018-12-11T02:06:20.257Z,81.12
2018-12-11T02:07:20.227Z,81.16
2018-12-11T02:08:20.229Z,80.85
2018-12-11T02:09:20.209Z,81.57
2018-12-11T02:10:20.203Z,81.16
2018-12-11T02:11:20.214Z,81.02
2018-12-11T02:12:20.180Z,81.47
2018-12-11T02:13:20.177Z,81.05
2018-12-11T02:14:20.157Z,81.47
2018-12-11T02:15:20.166Z,81.57
2018-12-11T02:16:20.174Z,81.68
2018-12-11T02:17:20.182Z,81.78
2018-12-11T02:18:20.130Z,81.68
2018-12-11T02:19:20.099Z,81.57
2018-12-11T02:20:20.080Z,81.78
2018-12-11T02:21:20.073Z,81.68
2018-12-11T02:22:20.084Z,81.78
2018-12-11T02:23:20.114Z,81.37
2018-12-11T02:24:20.039Z,81.92
2018-12-11T02:25:20.045Z,81.88
2018-12-11T02:26:20.039Z,81.78
2018-12-11T02:27:20.016Z,81.99
2018-12-11T02:28:20.019Z,82.09
2018-12-11T02:29:19.983Z,82.19
2018-12-11T02:30:19.979Z,81.68
2018-12-11T02:31:19.977Z,82.09
2018-12-11T02:32:19.961Z,82.09
2018-12-11T02:33:20.000Z,82.09
2018-12-11T02:34:19.937Z,81.99
2018-12-11T02:35:19.918Z,82.09
2018-12-11T02:36:19.913Z,81.92
2018-12-11T02:37:19.898Z,82.13
2018-12-11T02:38:19.972Z,81.82
2018-12-11T02:39:19.879Z,82.54
2018-12-11T02:40:19.861Z,82.65
2018-12-11T02:41:19.851Z,82.65
2018-12-11T02:42:19.859Z,82.23
2018-12-11T02:43:19.863Z,82.23
2018-12-11T02:44:19.832Z,82.23
2018-12-11T02:45:19.814Z,82.44
2018-12-11T02:46:19.810Z,82.23
2018-12-11T02:47:19.799Z,82.54
2018-12-11T02:48:19.806Z,83.06
2018-12-11T02:49:19.776Z,82.95
2018-12-11T02:50:19.752Z,83.06
2018-12-11T02:51:19.742Z,82.86
2018-12-11T02:52:19.735Z,82.95
2018-12-11T02:53:19.764Z,82.95
2018-12-11T02:54:19.719Z,82.86
2018-12-11T02:55:27.237Z,82.86
2018-12-11T02:56:19.687Z,82.86
2018-12-11T02:57:19.672Z,82.75
2018-12-11T02:58:19.661Z,82.44
2018-12-11T02:59:19.678Z,82.79
2018-12-11T03:00:19.710Z,82.75
2018-12-11T03:01:27.176Z,82.86
2018-12-11T03:02:19.679Z,82.58
2018-12-11T03:03:19.606Z,82.54
2018-12-11T03:04:19.611Z,82.58
2018-12-11T03:05:19.585Z,82.89
2018-12-11T03:06:19.579Z,82.68
2018-12-11T03:07:19.600Z,82.89
2018-12-11T03:08:19.558Z,82.68
2018-12-11T03:09:19.565Z,83.00
2018-12-11T03:10:19.535Z,83.10
2018-12-11T03:11:19.519Z,82.79
2018-12-11T03:12:19.517Z,82.68
2018-12-11T03:13:19.510Z,82.89
2018-12-11T03:14:19.501Z,82.89
2018-12-11T03:15:19.503Z,82.06
2018-12-11T03:16:19.461Z,82.58
2018-12-11T03:17:19.492Z,82.17
2018-12-11T03:18:19.455Z,82.48
2018-12-11T03:19:19.439Z,82.17
2018-12-11T03:20:19.454Z,82.27
2018-12-11T03:21:19.482Z,82.37
2018-12-11T03:22:19.395Z,82.27
2018-12-11T03:23:19.417Z,82.06
2018-12-11T03:24:19.399Z,81.75
2018-12-11T03:25:19.400Z,81.96
2018-12-11T03:26:19.351Z,82.27
2018-12-11T03:27:19.365Z,81.96
2018-12-11T03:28:26.869Z,81.96
2018-12-11T03:29:19.318Z,82.13
2018-12-11T03:30:19.333Z,82.17
2018-12-11T03:31:19.299Z,81.92
2018-12-11T03:32:19.288Z,81.61
2018-12-11T03:33:19.282Z,81.09
2018-12-11T03:34:19.266Z,81.71
2018-12-11T03:35:19.284Z,81.61
2018-12-11T03:36:19.252Z,81.30
2018-12-11T03:37:19.254Z,80.99
2018-12-11T03:38:19.224Z,81.20
2018-12-11T03:39:19.222Z,80.99
2018-12-11T03:40:19.238Z,80.99
2018-12-11T03:41:19.212Z,79.85
2018-12-11T03:42:19.202Z,79.95
2018-12-11T03:43:19.197Z,80.61
2018-12-11T03:44:19.160Z,80.57
2018-12-11T03:45:19.185Z,80.26
2018-12-11T03:46:19.146Z,80.16
2018-12-11T03:47:19.141Z,80.05
2018-12-11T03:48:19.153Z,80.40
2018-12-11T03:49:19.110Z,81.13
2018-12-11T03:50:19.098Z,80.92
2018-12-11T03:51:19.145Z,81.02
2018-12-11T03:52:21.528Z,81.34
2018-12-11T03:53:19.067Z,81.02
2018-12-11T03:54:19.087Z,81.23
2018-12-11T03:55:19.047Z,81.13
2018-12-11T03:56:19.035Z,81.65
2018-12-11T03:57:19.047Z,81.54
2018-12-11T03:58:19.033Z,81.65
2018-12-11T03:59:18.999Z,81.75
2018-12-11T04:00:18.988Z,81.65
2018-12-11T04:01:19.017Z,81.65
2018-12-11T04:02:19.012Z,82.17
2018-12-11T04:03:18.952Z,82.17
2018-12-11T04:04:18.953Z,81.96
2018-12-11T04:05:18.977Z,81.85
2018-12-11T04:06:18.925Z,81.85
2018-12-11T04:07:18.927Z,81.96
2018-12-11T04:08:18.906Z,81.85
2018-12-11T04:09:18.893Z,81.96
2018-12-11T04:10:18.890Z,82.17
2018-12-11T04:11:18.891Z,82.17
2018-12-11T04:12:18.857Z,81.96
2018-12-11T04:13:18.862Z,81.75
2018-12-11T04:14:18.844Z,81.92
2018-12-11T04:15:18.822Z,82.37
2018-12-11T04:16:18.827Z,82.27
2018-12-11T04:17:18.869Z,82.17
2018-12-11T04:18:18.789Z,82.58
2018-12-11T04:19:18.795Z,82.48
2018-12-11T04:20:18.774Z,81.54
2018-12-11T04:21:18.764Z,82.79
2018-12-11T04:22:18.758Z,81.65
2018-12-11T04:23:18.789Z,81.85
2018-12-11T04:24:18.755Z,81.96
2018-12-11T04:25:18.739Z,82.06
2018-12-11T04:26:18.704Z,82.37
2018-12-11T04:27:18.694Z,82.79
2018-12-11T04:28:18.742Z,81.85
2018-12-11T04:29:18.673Z,82.68
2018-12-11T04:30:18.661Z,82.68
2018-12-11T04:31:18.661Z,82.68
2018-12-11T04:32:18.658Z,82.37
2018-12-11T04:33:18.634Z,82.48
2018-12-11T04:34:18.649Z,82.37
2018-12-11T04:35:18.640Z,82.17
2018-12-11T04:36:18.612Z,82.48
2018-12-11T04:37:18.583Z,82.37
2018-12-11T04:38:18.601Z,82.48
2018-12-11T04:39:18.584Z,82.27
2018-12-11T04:40:18.575Z,82.27
2018-12-11T04:41:18.556Z,82.27
2018-12-11T04:42:18.533Z,83.14
2018-12-11T04:43:18.535Z,82.89
2018-12-11T04:44:18.583Z,83.00
2018-12-11T04:45:18.522Z,82.68
2018-12-11T04:46:18.482Z,82.58
2018-12-11T04:47:18.475Z,82.89
2018-12-11T04:48:18.497Z,82.51
2018-12-11T04:49:18.457Z,82.93
2018-12-11T04:50:18.460Z,82.62
2018-12-11T04:51:18.426Z,82.82
2018-12-11T04:52:18.418Z,82.68
2018-12-11T04:53:18.428Z,82.93
2018-12-11T04:54:18.399Z,83.24
2018-12-11T04:55:18.384Z,83.34
2018-12-11T04:56:18.405Z,83.14
2018-12-11T04:57:18.369Z,82.79
2018-12-11T04:58:18.352Z,83.00
2018-12-11T04:59:18.373Z,83.03
2018-12-11T05:00:18.331Z,83.00
2018-12-11T05:01:18.335Z,82.79
2018-12-11T05:02:18.342Z,82.93
2018-12-11T05:03:18.293Z,82.82
2018-12-11T05:04:18.314Z,82.93
2018-12-11T05:05:18.299Z,83.10
2018-12-11T05:06:18.273Z,83.20
2018-12-11T05:07:18.262Z,82.93
2018-12-11T05:08:18.242Z,83.83
2018-12-11T05:09:18.266Z,83.83
2018-12-11T05:10:18.228Z,83.51
2018-12-11T05:11:18.206Z,83.72
2018-12-11T05:12:18.252Z,83.45
2018-12-11T05:13:18.225Z,83.34
2018-12-11T05:14:18.178Z,83.55
2018-12-11T05:15:18.199Z,83.45
2018-12-11T05:16:18.159Z,83.45
2018-12-11T05:17:18.153Z,83.83
2018-12-11T05:18:18.150Z,83.34
2018-12-11T05:19:18.121Z,83.97
2018-12-11T05:20:18.188Z,83.86
2018-12-11T05:21:18.098Z,83.76
2018-12-11T05:22:18.092Z,83.65
2018-12-11T05:23:18.083Z,83.65
2018-12-11T05:24:18.109Z,84.17
2018-12-11T05:25:18.052Z,84.17
2018-12-11T05:26:18.058Z,83.97
2018-12-11T05:27:18.047Z,83.97
2018-12-11T05:28:18.023Z,83.97
2018-12-11T05:29:18.023Z,83.97
2018-12-11T05:30:17.997Z,83.20
2018-12-11T05:31:18.005Z,83.14
2018-12-11T05:32:18.008Z,83.62
2018-12-11T05:33:17.968Z,83.93
2018-12-11T05:34:17.982Z,83.10
2018-12-11T05:35:17.970Z,83.14
2018-12-11T05:36:17.954Z,83.41
2018-12-11T05:37:17.925Z,82.68
2018-12-11T05:38:17.912Z,82.68
2018-12-11T05:39:17.909Z,82.58
2018-12-11T05:40:17.904Z,82.68
2018-12-11T05:41:17.889Z,82.58
2018-12-11T05:42:17.889Z,82.68
2018-12-11T05:43:17.860Z,82.68
2018-12-11T05:44:17.843Z,82.48
2018-12-11T05:45:17.838Z,81.85
2018-12-11T05:46:17.843Z,81.92
2018-12-11T05:47:17.850Z,81.96
2018-12-11T05:48:17.811Z,81.82
2018-12-11T05:49:17.791Z,81.92
2018-12-11T05:50:17.780Z,81.92
2018-12-11T05:51:17.779Z,82.13
2018-12-11T05:52:17.798Z,81.92
2018-12-11T05:53:17.746Z,82.75
2018-12-11T05:54:17.738Z,82.44
2018-12-11T05:55:17.732Z,82.23
2018-12-11T05:56:17.710Z,82.44
2018-12-11T05:57:17.703Z,82.44
2018-12-11T05:58:17.749Z,82.75
2018-12-11T05:59:17.678Z,82.44
2018-12-11T06:00:17.667Z,82.95
2018-12-11T06:01:17.729Z,82.95
2018-12-11T06:02:17.656Z,83.58
2018-12-11T06:03:17.673Z,83.47
2018-12-11T06:04:17.638Z,83.16
2018-12-11T06:05:17.650Z,82.65
2018-12-11T06:06:17.606Z,82.65
2018-12-11T06:07:17.590Z,83.06
2018-12-11T06:08:17.621Z,82.86
2018-12-11T06:09:17.574Z,83.06
2018-12-11T06:10:17.577Z,83.06
2018-12-11T06:11:17.594Z,82.95
2018-12-11T06:12:17.622Z,83.06
2018-12-11T06:13:17.600Z,83.89
2018-12-11T06:14:17.553Z,82.86
2018-12-11T06:15:17.506Z,83.68
2018-12-11T06:16:17.535Z,82.65
2018-12-11T06:17:17.547Z,83.58
2018-12-11T06:18:17.511Z,83.16
2018-12-11T06:19:17.461Z,83.37
2018-12-11T06:20:17.454Z,83.47
2018-12-11T06:21:17.458Z,83.78
2018-12-11T06:22:17.429Z,82.95
2018-12-11T06:23:17.442Z,83.58
2018-12-11T06:24:17.426Z,83.58
2018-12-11T06:25:17.416Z,82.54
2018-12-11T06:26:25.931Z,82.65
2018-12-11T06:27:17.373Z,82.95
2018-12-11T06:28:17.361Z,82.75
2018-12-11T06:29:17.369Z,82.86
2018-12-11T06:30:17.350Z,82.95
2018-12-11T06:31:17.333Z,82.44
2018-12-11T06:32:17.326Z,82.81
2018-12-11T06:33:17.366Z,82.44
2018-12-11T06:34:17.343Z,82.86
2018-12-11T06:35:17.299Z,82.65
2018-12-11T06:36:17.279Z,82.54
2018-12-11T06:37:17.298Z,82.65
2018-12-11T06:38:17.259Z,82.95
2018-12-11T06:39:17.288Z,82.95
2018-12-11T06:40:17.275Z,82.75
2018-12-11T06:41:17.223Z,82.65
2018-12-11T06:42:17.209Z,82.54
2018-12-11T06:43:17.203Z,82.86
2018-12-11T06:44:17.249Z,82.23
2018-12-11T06:45:17.201Z,82.65
2018-12-11T06:46:17.167Z,82.50
2018-12-11T06:47:17.192Z,82.09
2018-12-11T06:48:17.145Z,82.23
2018-12-11T06:49:17.144Z,81.71
2018-12-11T06:50:17.161Z,81.61
2018-12-11T06:51:17.112Z,81.92
2018-12-11T06:52:17.114Z,81.82
2018-12-11T06:53:17.094Z,81.82
2018-12-11T06:54:17.080Z,81.20
2018-12-11T06:55:17.081Z,81.61
2018-12-11T06:56:17.080Z,80.99
2018-12-11T06:57:17.049Z,80.78
2018-12-11T06:58:17.040Z,81.40
2018-12-11T06:59:17.028Z,81.30
2018-12-11T07:00:17.017Z,81.20
2018-12-11T07:01:17.076Z,80.68
2018-12-11T07:02:16.998Z,81.30
2018-12-11T07:03:16.994Z,81.09
2018-12-11T07:04:16.973Z,81.30
2018-12-11T07:05:16.969Z,80.54
2018-12-11T07:06:16.991Z,80.78
2018-12-11T07:07:17.021Z,80.99
2018-12-11T07:08:16.961Z,80.36
2018-12-11T07:09:16.929Z,80.36
2018-12-11T07:10:16.914Z,80.26
2018-12-11T07:11:16.960Z,80.16
2018-12-11T07:12:16.895Z,80.47
2018-12-11T07:13:16.917Z,80.47
2018-12-11T07:14:16.934Z,80.26
2018-12-11T07:15:16.852Z,80.47
2018-12-11T07:16:16.863Z,80.36
2018-12-11T07:17:16.832Z,80.36
2018-12-11T07:18:16.839Z,80.36
2018-12-11T07:19:16.809Z,80.78
2018-12-11T07:20:16.819Z,80.78
2018-12-11T07:21:16.807Z,80.99
2018-12-11T07:22:16.776Z,80.88
2018-12-11T07:23:16.767Z,81.20
2018-12-11T07:24:16.784Z,81.20
2018-12-11T07:25:16.743Z,80.99
2018-12-11T07:26:16.753Z,80.88
2018-12-11T07:27:16.729Z,81.09
2018-12-11T07:28:16.712Z,80.99
2018-12-11T07:29:16.746Z,80.99
2018-12-11T07:30:16.816Z,80.88
2018-12-11T07:31:16.735Z,80.88
2018-12-11T07:32:16.686Z,81.20
2018-12-11T07:33:16.694Z,80.99
2018-12-11T07:34:16.653Z,80.99
2018-12-11T07:35:16.643Z,80.57
2018-12-11T07:36:16.630Z,80.05
2018-12-11T07:37:16.687Z,80.47
2018-12-11T07:38:16.605Z,80.36
2018-12-11T07:40:34.721Z,80.88
2018-12-11T07:41:34.889Z,80.64
2018-12-11T07:42:34.844Z,80.36
2018-12-11T07:43:34.666Z,80.16
2018-12-11T07:44:34.628Z,80.47
2018-12-11T07:45:34.604Z,80.36
2018-12-11T07:46:34.700Z,80.36
2018-12-11T07:47:34.655Z,80.16
2018-12-11T07:48:34.593Z,80.43
2018-12-11T07:49:34.619Z,79.81
2018-12-11T07:50:34.863Z,80.57
2018-12-11T07:51:34.849Z,80.26
2018-12-11T07:52:34.741Z,80.47
2018-12-11T07:53:34.772Z,80.33
2018-12-11T07:54:34.666Z,80.54
2018-12-11T07:55:34.562Z,79.91
2018-12-11T07:56:34.645Z,79.91
2018-12-11T07:57:34.739Z,80.12
2018-12-11T07:58:34.629Z,80.43
2018-12-11T07:59:34.730Z,80.12
2018-12-11T08:00:34.672Z,80.22
2018-12-11T08:01:34.981Z,80.16
2018-12-11T08:02:34.528Z,80.47
2018-12-11T08:03:34.578Z,80.26
2018-12-11T08:04:34.557Z,80.78
2018-12-11T08:05:34.674Z,80.85
2018-12-11T08:06:34.591Z,81.05
2018-12-11T08:07:34.507Z,81.20
2018-12-11T08:08:34.739Z,81.20
2018-12-11T08:09:34.482Z,81.20
2018-12-11T08:10:34.474Z,81.20
2018-12-11T08:11:34.686Z,81.51
2018-12-11T08:12:34.553Z,81.75
2018-12-11T08:13:34.440Z,81.75
2018-12-11T08:14:34.604Z,82.27
2018-12-11T08:19:44.398Z,81.61
2018-12-11T08:20:44.286Z,81.54
2018-12-11T08:21:45.370Z,81.51
2018-12-11T08:22:44.229Z,81.09
2018-12-11T08:23:46.409Z,81.02
2018-12-11T08:24:44.194Z,81.34
2018-12-11T08:25:44.791Z,80.88
2018-12-11T08:26:44.619Z,80.78
2018-12-11T08:27:44.249Z,81.09
2018-12-11T08:29:54.369Z,81.30
2018-12-11T08:30:54.342Z,81.09
2018-12-11T08:31:54.341Z,81.30
2018-12-11T08:32:54.335Z,80.88
2018-12-11T08:33:54.314Z,80.99
2018-12-11T08:34:54.332Z,80.88
2018-12-11T08:35:54.293Z,80.78
2018-12-11T08:36:54.280Z,80.68
2018-12-11T08:37:54.268Z,80.36
2018-12-11T08:38:54.260Z,80.05
2018-12-11T08:39:54.266Z,80.05
2018-12-11T08:40:54.281Z,80.47
2018-12-11T08:41:54.229Z,80.47
2018-12-11T08:42:54.217Z,80.26
2018-12-11T08:43:54.217Z,80.47
2018-12-11T08:44:54.369Z,80.26
2018-12-11T08:45:54.196Z,80.57
2018-12-11T08:46:54.176Z,80.16
2018-12-11T08:47:54.165Z,80.26
2018-12-11T08:48:54.161Z,80.16
2018-12-11T08:49:54.145Z,80.36
2018-12-11T08:50:54.153Z,79.95
2018-12-11T08:51:54.293Z,80.47
2018-12-11T08:52:54.110Z,80.16
2018-12-11T08:53:54.101Z,80.16
2018-12-11T08:54:54.087Z,80.05
2018-12-11T08:55:54.095Z,80.05
2018-12-11T08:56:54.082Z,80.16
2018-12-11T08:57:54.062Z,80.05
2018-12-11T08:58:55.372Z,80.16
2018-12-11T08:59:54.047Z,80.16
2018-12-11T09:00:54.051Z,80.05
2018-12-11T09:01:54.012Z,80.16
2018-12-11T09:02:53.997Z,80.05
2018-12-11T09:03:54.042Z,79.85
2018-12-11T09:04:53.982Z,79.64
2018-12-11T09:05:53.994Z,79.74
2018-12-11T09:06:53.966Z,79.85
2018-12-11T09:07:53.941Z,79.60
2018-12-11T09:08:53.938Z,79.33
2018-12-11T09:09:53.921Z,80.26
2018-12-11T09:10:53.953Z,80.05
2018-12-11T09:11:53.926Z,79.74
2018-12-11T09:12:53.894Z,79.60
2018-12-11T09:13:53.938Z,79.74
2018-12-11T09:14:53.872Z,79.30
2018-12-11T09:15:53.884Z,79.50
2018-12-11T09:16:53.847Z,79.60
2018-12-11T09:17:53.833Z,79.19
2018-12-11T09:18:53.827Z,78.78
2018-12-11T09:19:53.818Z,79.50
2018-12-11T09:20:53.808Z,79.77
2018-12-11T09:21:53.808Z,79.77
2018-12-11T09:23:01.325Z,78.64
2018-12-11T09:23:54.431Z,78.33
2018-12-11T09:24:53.755Z,78.22
2018-12-11T09:25:53.755Z,78.22
2018-12-11T09:26:53.782Z,77.91
2018-12-11T09:27:53.727Z,78.33
2018-12-11T09:28:53.710Z,78.22
2018-12-11T09:29:53.719Z,78.02
2018-12-11T09:30:53.693Z,78.02
2018-12-11T09:31:53.698Z,78.12
2018-12-11T09:33:02.262Z,77.91
2018-12-11T09:33:53.660Z,77.81
2018-12-11T09:34:53.645Z,78.22
2018-12-11T09:35:53.637Z,78.02
2018-12-11T09:36:53.641Z,77.77
2018-12-11T09:37:53.616Z,77.77
2018-12-11T09:38:53.617Z,77.67
2018-12-11T09:39:53.592Z,77.67
2018-12-11T09:40:53.579Z,77.91
2018-12-11T09:41:53.589Z,77.81
2018-12-11T09:42:53.735Z,77.39
2018-12-11T09:43:53.554Z,77.77
2018-12-11T09:44:53.535Z,77.67
2018-12-11T09:45:53.529Z,77.47
2018-12-11T09:46:53.529Z,77.56
2018-12-11T09:47:53.509Z,77.60
2018-12-11T09:49:02.048Z,77.70
2018-12-11T09:49:53.478Z,77.87
2018-12-11T09:50:53.467Z,78.02
2018-12-11T09:51:53.492Z,77.81
2018-12-11T09:52:53.447Z,78.12
2018-12-11T09:53:53.433Z,78.19
2018-12-11T09:54:53.471Z,78.19
2018-12-11T09:55:53.413Z,77.67
2018-12-11T09:56:53.401Z,77.64
2018-12-11T09:57:53.426Z,78.50
2018-12-11T09:58:53.405Z,78.05
2018-12-11T09:59:53.368Z,77.74
2018-12-11T10:00:53.373Z,77.74
2018-12-11T10:01:53.348Z,76.81
2018-12-11T10:02:53.372Z,76.91
2018-12-11T10:03:53.335Z,77.12
2018-12-11T10:04:53.366Z,77.33
2018-12-11T10:05:53.303Z,77.43
2018-12-11T10:06:53.290Z,77.43
2018-12-11T10:07:53.298Z,76.70
2018-12-11T10:08:53.276Z,77.39
2018-12-11T10:09:53.269Z,76.36
2018-12-11T10:10:53.252Z,76.46
2018-12-11T10:11:53.245Z,75.63
2018-12-11T10:12:53.246Z,75.57
2018-12-11T10:13:53.221Z,75.84
2018-12-11T10:14:53.215Z,75.84
2018-12-11T10:15:53.203Z,76.56
2018-12-11T10:16:53.197Z,76.15
2018-12-11T10:17:53.202Z,76.46
2018-12-11T10:18:53.164Z,75.84
2018-12-11T10:19:53.158Z,75.32
2018-12-11T10:20:53.138Z,75.84
2018-12-11T10:21:53.128Z,75.84
2018-12-11T10:22:53.156Z,76.39
2018-12-11T10:23:53.158Z,76.36
2018-12-11T10:24:53.094Z,76.05
2018-12-11T10:25:53.099Z,75.84
2018-12-11T10:26:53.074Z,75.74
2018-12-11T10:27:53.066Z,74.91
2018-12-11T10:28:53.073Z,75.74
2018-12-11T10:29:53.045Z,75.43
2018-12-11T10:30:53.029Z,76.56
2018-12-11T10:31:53.021Z,75.84
2018-12-11T10:32:53.007Z,76.15
2018-12-11T10:33:53.013Z,75.15
2018-12-11T10:34:52.992Z,75.98
2018-12-11T10:35:53.006Z,76.09
2018-12-11T10:36:52.966Z,76.50
2018-12-11T10:37:52.999Z,77.22
2018-12-11T10:38:52.964Z,77.84
2018-12-11T10:39:52.932Z,77.84
2018-12-11T10:40:52.930Z,77.12
2018-12-11T10:41:52.921Z,77.67
2018-12-11T10:42:52.901Z,77.33
2018-12-11T10:43:52.922Z,77.67
2018-12-11T10:44:53.015Z,77.47
2018-12-11T10:45:52.867Z,77.67
2018-12-11T10:46:52.860Z,77.47
2018-12-11T10:47:52.862Z,77.33
2018-12-11T10:48:52.864Z,77.64
2018-12-11T10:49:52.827Z,77.47
2018-12-11T10:50:52.832Z,77.53
2018-12-11T10:51:52.818Z,77.22
2018-12-11T10:52:52.803Z,77.53
2018-12-11T10:53:52.807Z,76.56
2018-12-11T10:54:52.788Z,77.19
2018-12-11T10:55:52.761Z,76.29
2018-12-11T10:56:52.796Z,76.81
2018-12-11T10:57:52.769Z,76.46
2018-12-11T10:58:52.751Z,76.70
2018-12-11T10:59:52.735Z,77.43
2018-12-11T11:00:52.706Z,76.56
2018-12-11T11:01:52.706Z,75.74
2018-12-11T11:02:52.705Z,75.63
2018-12-11T11:03:52.676Z,76.36
2018-12-11T11:04:52.684Z,75.74
2018-12-11T11:05:52.682Z,75.95
2018-12-11T11:06:52.649Z,75.53
2018-12-11T11:07:52.634Z,76.05
2018-12-11T11:08:52.621Z,75.95
2018-12-11T11:09:52.626Z,75.53
2018-12-11T11:10:52.607Z,76.36
2018-12-11T11:11:52.635Z,75.60
2018-12-11T11:12:52.586Z,75.49
2018-12-11T11:13:52.595Z,75.09
2018-12-11T11:14:52.572Z,75.81
2018-12-11T11:15:52.568Z,74.74
2018-12-11T11:16:52.538Z,74.74
2018-12-11T11:17:52.524Z,74.84
2018-12-11T11:18:52.524Z,73.91
2018-12-11T11:19:52.500Z,74.33
2018-12-11T11:20:52.519Z,74.43
2018-12-11T11:21:52.496Z,74.43
2018-12-11T11:22:52.470Z,74.05
2018-12-11T11:23:52.481Z,74.12
2018-12-11T11:24:52.449Z,74.53
2018-12-11T11:25:52.474Z,74.33
2018-12-11T11:26:52.428Z,74.12
2018-12-11T11:27:52.421Z,73.91
2018-12-11T11:28:52.419Z,74.12
2018-12-11T11:29:52.405Z,74.46
2018-12-11T11:30:52.449Z,74.57
2018-12-11T11:31:52.378Z,73.85
2018-12-11T11:32:52.383Z,74.26
2018-12-11T11:33:56.670Z,74.26
2018-12-11T11:34:53.364Z,74.33
2018-12-11T11:35:52.332Z,73.95
2018-12-11T11:36:52.383Z,74.12
2018-12-11T11:37:52.311Z,74.22
2018-12-11T11:38:52.323Z,73.09
2018-12-11T11:39:52.287Z,73.19
2018-12-11T11:40:52.300Z,73.19
2018-12-11T11:41:52.290Z,73.05
2018-12-11T11:42:52.255Z,73.26
2018-12-11T11:43:52.270Z,73.39
2018-12-11T11:44:52.269Z,73.05
2018-12-11T11:45:52.225Z,72.88
2018-12-11T11:46:52.231Z,72.64
2018-12-11T11:47:52.208Z,72.44
2018-12-11T11:48:52.195Z,72.85
2018-12-11T11:49:52.182Z,72.40
2018-12-11T11:50:52.194Z,71.89
2018-12-11T11:51:52.185Z,71.06
2018-12-11T11:52:52.146Z,71.64
2018-12-11T11:53:52.140Z,71.44
2018-12-11T11:54:52.132Z,71.34
2018-12-11T11:55:52.117Z,71.34
2018-12-11T11:56:52.140Z,70.92
2018-12-11T11:57:52.091Z,71.06
2018-12-11T11:58:52.083Z,71.37
2018-12-11T11:59:52.078Z,71.26
2018-12-11T12:00:52.073Z,71.78
2018-12-11T12:01:52.095Z,72.09
2018-12-11T12:02:52.039Z,71.89
2018-12-11T12:03:52.035Z,71.99
2018-12-11T12:04:52.016Z,72.19
2018-12-11T12:05:52.034Z,72.44
2018-12-11T12:06:51.993Z,72.40
2018-12-11T12:07:52.006Z,72.40
2018-12-11T12:08:51.978Z,72.44
2018-12-11T12:09:51.993Z,72.64
2018-12-11T12:10:51.954Z,72.44
2018-12-11T12:11:51.944Z,72.85
2018-12-11T12:12:51.947Z,72.71
2018-12-11T12:13:51.916Z,72.92
2018-12-11T12:14:51.917Z,72.92
2018-12-11T12:15:51.897Z,71.89
2018-12-11T12:16:51.888Z,72.54
2018-12-11T12:17:51.896Z,72.61
2018-12-11T12:18:51.869Z,72.74
2018-12-11T12:19:51.856Z,73.16
2018-12-11T12:20:51.859Z,72.85
2018-12-11T12:21:51.840Z,72.92
2018-12-11T12:22:51.846Z,71.78
2018-12-11T12:24:00.499Z,71.92
2018-12-11T12:24:59.436Z,72.40
2018-12-11T12:25:51.791Z,72.30
2018-12-11T12:26:51.775Z,72.40
2018-12-11T12:27:51.789Z,72.40
2018-12-11T12:28:51.759Z,72.30
2018-12-11T12:29:51.804Z,71.68
2018-12-11T12:30:51.734Z,72.19
2018-12-11T12:31:51.810Z,71.99
2018-12-11T12:32:51.709Z,72.54
2018-12-11T12:33:52.174Z,72.23
2018-12-11T12:34:51.692Z,72.23
2018-12-11T12:35:51.684Z,72.85
2018-12-11T12:36:51.667Z,72.64
2018-12-11T12:37:51.662Z,72.78
2018-12-11T12:38:51.684Z,72.74
2018-12-11T12:39:51.648Z,73.09
2018-12-11T12:40:51.630Z,72.99
2018-12-11T12:41:51.617Z,72.85
2018-12-11T12:42:51.607Z,72.85
2018-12-11T12:43:51.618Z,72.16
2018-12-11T12:44:51.587Z,72.44
2018-12-11T12:45:51.570Z,72.44
2018-12-11T12:46:51.563Z,71.81
2018-12-11T12:47:51.549Z,71.99
2018-12-11T12:48:51.558Z,71.81
2018-12-11T12:49:51.536Z,71.89
2018-12-11T12:50:51.516Z,72.13
2018-12-11T12:51:51.514Z,71.89
2018-12-11T12:52:51.498Z,71.78
2018-12-11T12:53:51.513Z,71.92
2018-12-11T12:54:51.477Z,72.13
2018-12-11T12:55:51.466Z,72.19
2018-12-11T12:56:51.455Z,72.19
2018-12-11T12:57:51.442Z,71.71
2018-12-11T12:58:51.460Z,71.68